createdAt,value
2018-03-21T00:02:07.027Z,18.20
2018-03-21T00:04:35.258Z,18.47
2018-03-21T00:07:02.906Z,17.40
2018-03-21T00:09:30.448Z,20.07
2018-03-21T00:11:57.997Z,18.60
2018-03-21T00:14:26.821Z,18.07
2018-03-21T00:16:54.939Z,17.57
2018-03-21T00:19:22.523Z,17.00
2018-03-21T00:21:50.061Z,19.10
2018-03-21T00:24:17.618Z,18.77
2018-03-21T00:26:45.687Z,18.60
2018-03-21T00:29:15.609Z,17.67
2018-03-21T00:31:43.286Z,19.03
2018-03-21T00:34:11.777Z,17.67
2018-03-21T00:36:39.516Z,16.93
2018-03-21T00:39:07.107Z,15.37
2018-03-21T00:41:34.661Z,16.40
2018-03-21T00:44:02.992Z,17.40
2018-03-21T00:46:30.880Z,16.63
2018-03-21T00:48:58.456Z,17.90
2018-03-21T00:51:28.189Z,16.43
2018-03-21T00:53:57.132Z,16.47
2018-03-21T00:56:24.796Z,16.80
2018-03-21T00:58:52.317Z,18.00
2018-03-21T01:01:20.833Z,16.37
2018-03-21T01:03:48.376Z,16.10
2018-03-21T01:06:16.650Z,15.23
2018-03-21T01:08:44.947Z,16.97
2018-03-21T01:11:13.410Z,15.50
2018-03-21T01:13:40.931Z,16.27
2018-03-21T01:16:08.533Z,16.77
2018-03-21T01:18:36.062Z,15.83
2018-03-21T01:21:03.647Z,15.20
2018-03-21T01:23:31.711Z,16.27
2018-03-21T01:26:00.036Z,15.80
2018-03-21T01:28:29.716Z,16.60
2018-03-21T01:30:57.374Z,15.17
2018-03-21T01:33:25.671Z,14.80
2018-03-21T01:35:53.300Z,14.53
2018-03-21T01:38:21.092Z,15.60
2018-03-21T01:40:48.662Z,15.70
2018-03-21T01:43:18.204Z,13.93
2018-03-21T01:45:46.831Z,15.83
2018-03-21T01:48:15.016Z,14.53
2018-03-21T01:50:42.614Z,15.10
2018-03-21T01:53:11.202Z,15.70
2018-03-21T01:55:38.786Z,15.90
2018-03-21T01:58:06.447Z,15.80
2018-03-21T02:00:34.309Z,15.67
2018-03-21T02:03:01.866Z,16.30
2018-03-21T02:05:29.526Z,15.70
2018-03-21T02:07:57.283Z,15.93
2018-03-21T02:10:26.201Z,15.23
2018-03-21T02:12:53.776Z,14.60
2018-03-21T02:15:21.907Z,16.13
2018-03-21T02:17:50.091Z,15.70
2018-03-21T02:20:17.669Z,15.87
2018-03-21T02:22:45.882Z,16.10
2018-03-21T02:25:14.125Z,16.17
2018-03-21T02:27:42.520Z,16.00
2018-03-21T02:30:10.131Z,15.53
2018-03-21T02:32:37.689Z,16.20
2018-03-21T02:35:06.723Z,15.67
2018-03-21T02:37:34.488Z,14.33
2018-03-21T02:40:03.060Z,14.70
2018-03-21T02:42:30.602Z,15.83
2018-03-21T02:44:58.203Z,15.60
2018-03-21T02:47:26.306Z,14.73
2018-03-21T02:49:54.485Z,16.70
2018-03-21T02:52:22.839Z,14.47
2018-03-21T02:54:50.748Z,14.00
2018-03-21T02:57:18.350Z,14.47
2018-03-21T02:59:47.424Z,15.60
2018-03-21T03:02:16.728Z,15.20
2018-03-21T03:04:44.326Z,14.43
2018-03-21T03:07:12.057Z,13.90
2018-03-21T03:09:39.592Z,15.20
2018-03-21T03:12:07.191Z,15.80
2018-03-21T03:14:34.983Z,15.20
2018-03-21T03:17:02.514Z,14.20
2018-03-21T03:19:30.072Z,19.60
2018-03-21T03:21:57.836Z,13.83
2018-03-21T03:24:25.491Z,15.00
2018-03-21T03:26:53.823Z,15.20
2018-03-21T03:29:22.190Z,15.23
2018-03-21T03:31:49.830Z,16.27
2018-03-21T03:34:18.805Z,16.60
2018-03-21T03:36:46.686Z,16.43
2018-03-21T03:39:14.413Z,15.70
2018-03-21T03:41:41.988Z,17.90
2018-03-21T03:44:09.534Z,18.10
2018-03-21T03:46:37.217Z,17.13
2018-03-21T03:49:06.278Z,18.40
2018-03-21T03:51:34.511Z,17.20
2018-03-21T03:54:02.190Z,18.13
2018-03-21T03:56:30.667Z,17.00
2018-03-21T03:58:58.236Z,17.20
2018-03-21T04:01:26.754Z,17.30
2018-03-21T04:03:55.373Z,17.47
2018-03-21T04:06:22.922Z,16.90
2018-03-21T04:08:50.515Z,18.20
2018-03-21T04:11:19.791Z,19.00
2018-03-21T04:13:48.990Z,18.50
2018-03-21T04:16:16.741Z,18.13
2018-03-21T04:18:44.297Z,18.90
2018-03-21T04:21:11.852Z,18.90
2018-03-21T04:23:39.459Z,18.60
2018-03-21T04:26:07.712Z,20.37
2018-03-21T04:28:35.947Z,18.90
2018-03-21T04:31:03.555Z,19.07
2018-03-21T04:33:31.970Z,19.50
2018-03-21T04:35:59.524Z,20.03
2018-03-21T04:38:28.588Z,21.07
2018-03-21T04:40:56.750Z,20.80
2018-03-21T04:43:24.279Z,21.13
2018-03-21T04:45:51.923Z,19.37
2018-03-21T04:48:19.538Z,20.93
2018-03-21T04:50:47.113Z,23.00
2018-03-21T05:06:10.386Z,20.43
2018-03-21T05:08:38.765Z,20.00
2018-03-21T05:11:09.310Z,20.50
2018-03-21T05:13:37.753Z,21.20
2018-03-21T05:16:06.141Z,20.67
2018-03-21T05:18:33.734Z,22.40
2018-03-21T05:21:01.359Z,23.27
2018-03-21T05:23:28.946Z,21.17
2018-03-21T05:25:57.326Z,22.33
2018-03-21T05:28:26.083Z,23.40
2018-03-21T05:30:53.620Z,21.33
2018-03-21T05:33:22.021Z,24.07
2018-03-21T05:35:50.294Z,23.30
2018-03-21T05:38:17.860Z,23.40
2018-03-21T05:40:46.064Z,24.13
2018-03-21T05:43:13.639Z,23.97
2018-03-21T05:45:41.491Z,25.97
2018-03-21T05:48:09.888Z,25.50
2018-03-21T05:50:38.181Z,24.87
2018-03-21T05:53:06.443Z,27.23
2018-03-21T05:55:34.233Z,25.50
2018-03-21T05:58:01.769Z,25.40
2018-03-21T06:00:29.310Z,28.67
2018-03-21T06:02:57.210Z,27.27
2018-03-21T06:05:25.385Z,26.53
2018-03-21T06:07:52.991Z,26.57
2018-03-21T06:10:21.593Z,27.07
2018-03-21T06:12:51.204Z,29.10
2018-03-21T06:15:19.033Z,28.33
2018-03-21T06:17:46.650Z,27.47
2018-03-21T06:20:14.188Z,29.70
2018-03-21T06:22:42.250Z,27.93
2018-03-21T06:25:09.872Z,28.00
2018-03-21T06:27:37.523Z,28.83
2018-03-21T06:30:06.117Z,28.30
2018-03-21T06:32:33.691Z,30.10
2018-03-21T06:35:01.210Z,28.83
2018-03-21T06:37:29.051Z,27.30
2018-03-21T06:39:56.632Z,28.67
2018-03-21T06:42:24.807Z,29.40
2018-03-21T06:44:52.388Z,30.00
2018-03-21T06:47:20.916Z,26.10
2018-03-21T06:49:48.555Z,26.40
2018-03-21T06:52:16.078Z,28.60
2018-03-21T06:54:43.615Z,29.03
2018-03-21T06:57:12.072Z,28.47
2018-03-21T06:59:40.377Z,28.60
2018-03-21T07:02:10.489Z,28.60
2018-03-21T07:04:38.085Z,26.80
2018-03-21T07:07:06.602Z,27.77
2018-03-21T07:09:34.196Z,27.60
2018-03-21T07:12:03.175Z,25.30
2018-03-21T07:14:43.434Z,26.33
2018-03-21T07:17:10.954Z,26.00
2018-03-21T07:19:38.509Z,30.57
2018-03-21T07:22:06.878Z,28.47
2018-03-21T07:24:34.477Z,28.10
2018-03-21T07:27:02.061Z,27.87
2018-03-21T07:29:30.437Z,27.80
2018-03-21T07:31:57.997Z,29.27
2018-03-21T07:34:26.692Z,28.87
2018-03-21T07:36:54.340Z,30.33
2018-03-21T07:39:21.984Z,29.83
2018-03-21T07:41:50.390Z,29.63
2018-03-21T07:44:18.762Z,28.70
2018-03-21T07:46:47.246Z,31.40
2018-03-21T07:49:14.997Z,31.00
2018-03-21T07:51:42.611Z,30.37
2018-03-21T07:54:10.811Z,32.00
2018-03-21T07:56:38.413Z,30.90
2018-03-21T07:59:06.744Z,31.10
2018-03-21T08:01:34.910Z,31.33
2018-03-21T08:04:03.422Z,30.30
2018-03-21T08:06:30.989Z,29.50
2018-03-21T08:08:59.778Z,29.60
2018-03-21T08:11:27.377Z,31.37
2018-03-21T08:13:55.627Z,29.93
2018-03-21T08:16:24.314Z,29.30
2018-03-21T08:18:52.426Z,31.53
2018-03-21T08:21:19.951Z,30.87
2018-03-21T08:23:49.766Z,34.07
2018-03-21T08:26:17.303Z,30.57
2018-03-21T08:28:44.866Z,31.10
2018-03-21T08:31:13.656Z,29.60
2018-03-21T08:33:41.940Z,29.67
2018-03-21T08:36:09.495Z,28.73
2018-03-21T08:38:38.547Z,29.10
2018-03-21T08:41:06.101Z,29.10
2018-03-21T08:43:33.748Z,28.90
2018-03-21T08:46:01.251Z,29.90
2018-03-21T08:48:29.654Z,29.47
2018-03-21T08:50:57.296Z,28.00
2018-03-21T08:53:25.342Z,27.33
2018-03-21T08:55:55.023Z,27.13
2018-03-21T08:58:23.060Z,26.70
2018-03-21T09:00:52.668Z,28.67
2018-03-21T09:03:20.520Z,28.47
2018-03-21T09:05:48.212Z,27.77
2018-03-21T09:08:17.540Z,26.10
2018-03-21T09:10:45.881Z,28.70
2018-03-21T09:13:14.167Z,26.97
2018-03-21T09:15:43.050Z,29.03
2018-03-21T09:18:12.061Z,27.57
2018-03-21T09:20:39.653Z,27.00
2018-03-21T09:23:08.082Z,27.23
2018-03-21T09:25:36.498Z,25.97
2018-03-21T09:28:04.368Z,27.30
2018-03-21T09:30:32.821Z,28.17
2018-03-21T09:33:00.393Z,27.77
2018-03-21T09:35:27.978Z,27.20
2018-03-21T09:37:56.640Z,25.90
2018-03-21T09:40:27.630Z,26.33
2018-03-21T09:42:55.974Z,26.77
2018-03-21T09:45:24.664Z,27.10
2018-03-21T09:47:52.228Z,27.17
2018-03-21T09:50:19.756Z,26.67
2018-03-21T09:52:47.300Z,25.70
2018-03-21T09:55:15.454Z,26.33
2018-03-21T09:57:43.793Z,23.50
2018-03-21T10:00:11.354Z,24.80
2018-03-21T10:02:39.753Z,23.20
2018-03-21T10:05:07.308Z,22.97
2018-03-21T10:07:35.320Z,23.77
2018-03-21T10:10:03.098Z,23.40
2018-03-21T10:12:30.689Z,24.50
2018-03-21T10:14:58.274Z,21.97
2018-03-21T10:17:26.616Z,22.23
2018-03-21T10:19:54.668Z,20.97
2018-03-21T10:22:22.322Z,21.67
2018-03-21T10:24:51.200Z,23.23
2018-03-21T10:27:19.612Z,22.20
2018-03-21T10:29:47.766Z,20.67
2018-03-21T10:32:15.697Z,21.93
2018-03-21T10:34:43.319Z,23.10
2018-03-21T10:37:10.859Z,22.70
2018-03-21T10:39:38.426Z,22.43
2018-03-21T10:42:06.850Z,22.13
2018-03-21T10:44:35.110Z,21.00
2018-03-21T10:47:02.698Z,21.07
2018-03-21T10:49:30.995Z,20.57
2018-03-21T10:51:59.365Z,21.43
2018-03-21T10:54:29.222Z,21.10
2018-03-21T10:56:57.724Z,20.20
2018-03-21T10:59:26.061Z,21.53
2018-03-21T11:02:00.020Z,19.60
2018-03-21T11:04:27.594Z,19.07
2018-03-21T11:06:55.789Z,17.43
2018-03-21T11:09:24.677Z,17.47
2018-03-21T11:11:52.664Z,15.60
2018-03-21T11:14:20.253Z,14.97
2018-03-21T11:16:47.834Z,15.17
2018-03-21T11:19:16.354Z,14.93
2018-03-21T11:21:44.500Z,14.90
2018-03-21T11:24:12.234Z,13.67
2018-03-21T11:26:39.788Z,12.63
2018-03-21T11:29:08.178Z,12.50
2018-03-21T11:31:35.975Z,11.10
2018-03-21T11:34:03.551Z,13.00
2018-03-21T11:36:31.580Z,11.87
2018-03-21T11:38:59.547Z,10.30
2018-03-21T11:41:27.069Z,9.87
2018-03-21T11:43:58.355Z,9.30
2018-03-21T11:46:27.761Z,9.83
2018-03-21T11:48:57.024Z,9.70
2018-03-21T11:51:24.890Z,8.10
2018-03-21T11:53:52.761Z,8.90
2018-03-21T11:56:20.314Z,9.03
2018-03-21T11:58:47.919Z,9.90
2018-03-21T12:01:16.352Z,9.13
2018-03-21T12:03:44.247Z,9.70
2018-03-21T12:06:12.587Z,9.83
2018-03-21T12:08:40.958Z,9.63
2018-03-21T12:11:09.151Z,10.60
2018-03-21T12:13:36.763Z,9.60
2018-03-21T12:16:04.434Z,10.00
2018-03-21T12:18:31.970Z,11.80
2018-03-21T12:21:00.772Z,10.90
2018-03-21T12:23:28.366Z,10.53
2018-03-21T12:25:57.316Z,11.53
2018-03-21T12:28:25.397Z,13.50
2018-03-21T12:30:53.460Z,13.30
2018-03-21T12:33:21.079Z,11.70
2018-03-21T12:35:49.091Z,12.50
2018-03-21T12:38:16.656Z,11.57
2018-03-21T12:40:44.543Z,11.20
2018-03-21T12:43:12.859Z,12.03
2018-03-21T12:45:40.413Z,12.53
2018-03-21T12:48:08.751Z,11.43
2018-03-21T12:50:36.298Z,12.30
2018-03-21T12:53:03.848Z,12.00
2018-03-21T12:55:31.421Z,13.23
2018-03-21T12:57:58.978Z,12.97
2018-03-21T13:00:28.006Z,13.67
2018-03-21T13:02:56.392Z,12.60
2018-03-21T13:05:24.289Z,12.63
2018-03-21T13:07:52.262Z,12.70
2018-03-21T13:10:20.819Z,9.90
2018-03-21T13:12:48.372Z,7.70
2018-03-21T13:15:16.710Z,7.70
2018-03-21T13:17:45.781Z,8.20
2018-03-21T13:20:13.420Z,10.77
2018-03-21T13:22:41.403Z,12.43
2018-03-21T13:25:09.582Z,12.40
2018-03-21T13:27:37.393Z,11.33
2018-03-21T13:30:05.658Z,11.27
2018-03-21T13:32:36.026Z,10.10
2018-03-21T13:35:04.215Z,8.40
2018-03-21T13:37:31.821Z,8.70
2018-03-21T13:39:59.658Z,9.67
2018-03-21T13:42:27.523Z,9.37
2018-03-21T13:44:55.810Z,8.50
2018-03-21T13:47:24.810Z,6.90
2018-03-21T13:49:52.417Z,6.03
2018-03-21T13:52:20.179Z,7.00
2018-03-21T13:54:48.440Z,7.20
2018-03-21T13:57:15.998Z,6.33
2018-03-21T13:59:43.739Z,6.00
2018-03-21T14:02:11.348Z,5.97
2018-03-21T14:04:38.906Z,6.90
2018-03-21T14:07:06.666Z,6.10
2018-03-21T14:09:34.383Z,5.70
2018-03-21T14:12:02.717Z,5.97
2018-03-21T14:14:30.317Z,6.77
2018-03-21T14:16:57.902Z,5.97
2018-03-21T14:19:26.404Z,6.13
2018-03-21T14:21:55.332Z,7.13
2018-03-21T14:24:22.869Z,6.60
2018-03-21T14:26:50.687Z,6.27
2018-03-21T14:29:19.203Z,7.10
2018-03-21T14:31:46.717Z,6.40
2018-03-21T14:34:14.244Z,5.90
2018-03-21T14:36:43.242Z,6.87
2018-03-21T14:39:11.109Z,6.70
2018-03-21T14:41:40.236Z,5.50
2018-03-21T14:44:08.579Z,5.33
2018-03-21T14:46:36.931Z,5.97
2018-03-21T14:49:05.547Z,6.10
2018-03-21T14:51:33.863Z,6.53
2018-03-21T14:54:01.423Z,5.30
2018-03-21T14:56:29.700Z,5.87
2018-03-21T14:58:58.170Z,5.40
2018-03-21T15:01:25.843Z,4.77
2018-03-21T15:03:53.436Z,5.37
2018-03-21T15:06:21.592Z,5.33
2018-03-21T15:08:49.208Z,6.30
2018-03-21T15:11:16.791Z,6.53
2018-03-21T15:13:45.790Z,5.83
2018-03-21T15:16:13.558Z,6.80
2018-03-21T15:18:41.919Z,5.90
2018-03-21T15:21:09.467Z,5.23
2018-03-21T15:23:37.053Z,4.57
2018-03-21T15:26:04.624Z,5.50
2018-03-21T15:28:32.226Z,4.27
2018-03-21T15:31:00.562Z,5.07
2018-03-21T15:33:28.090Z,6.00
2018-03-21T15:35:56.803Z,5.03
2018-03-21T15:38:24.976Z,4.90
2018-03-21T15:40:52.981Z,5.30
2018-03-21T15:43:21.299Z,4.50
2018-03-21T15:45:48.896Z,4.93
2018-03-21T15:48:16.875Z,4.50
2018-03-21T15:50:44.717Z,4.53
2018-03-21T15:53:12.344Z,5.97
2018-03-21T15:55:41.143Z,4.50
2018-03-21T15:58:08.864Z,4.47
2018-03-21T16:00:37.647Z,4.70
2018-03-21T16:03:05.730Z,4.10
2018-03-21T16:05:33.307Z,4.63
2018-03-21T16:08:01.658Z,4.90
2018-03-21T16:10:29.272Z,4.40
2018-03-21T16:22:42.377Z,4.80
2018-03-21T16:25:10.009Z,5.57
2018-03-21T16:27:39.243Z,5.03
2018-03-21T16:30:06.873Z,5.67
2018-03-21T16:32:35.720Z,4.57
2018-03-21T16:35:04.397Z,4.70
2018-03-21T16:37:32.008Z,5.80
2018-03-21T16:40:00.420Z,5.47
2018-03-21T16:42:28.440Z,5.57
2018-03-21T16:44:56.253Z,5.17
2018-03-21T16:47:24.003Z,4.40
2018-03-21T16:49:51.986Z,5.10
2018-03-21T16:52:19.571Z,5.20
2018-03-21T16:54:47.253Z,5.03
2018-03-21T16:57:16.263Z,4.33
2018-03-21T16:59:44.126Z,6.00
2018-03-21T17:02:12.498Z,5.50
2018-03-21T17:04:40.441Z,4.90
2018-03-21T17:07:08.027Z,4.73
2018-03-21T17:09:36.365Z,4.73
2018-03-21T17:12:04.210Z,5.20
2018-03-21T17:14:32.254Z,9.30
2018-03-21T17:16:59.863Z,9.37
2018-03-21T17:19:27.394Z,9.13
2018-03-21T17:21:55.389Z,7.47
2018-03-21T17:24:23.846Z,8.73
2018-03-21T17:26:51.899Z,10.70
2018-03-21T17:29:20.232Z,6.87
2018-03-21T17:31:47.998Z,9.10
2018-03-21T17:34:16.333Z,8.63
2018-03-21T17:36:44.169Z,12.40
2018-03-21T17:39:12.610Z,8.90
2018-03-21T17:41:40.206Z,9.20
2018-03-21T17:44:07.764Z,13.60
2018-03-21T17:46:36.627Z,11.50
2018-03-21T17:49:04.278Z,9.33
2018-03-21T17:51:32.481Z,7.60
2018-03-21T17:54:02.406Z,9.77
2018-03-21T17:56:30.560Z,9.23
2018-03-21T17:58:58.330Z,8.17
2018-03-21T18:01:27.016Z,9.80
2018-03-21T18:03:54.573Z,7.50
2018-03-21T18:06:22.476Z,7.60
2018-03-21T18:08:50.577Z,6.80
2018-03-21T18:11:18.116Z,6.57
2018-03-21T18:13:46.487Z,7.17
2018-03-21T18:16:14.052Z,7.20
2018-03-21T18:18:42.499Z,5.50
2018-03-21T18:21:10.010Z,6.30
2018-03-21T18:23:37.592Z,6.80
2018-03-21T18:26:05.673Z,5.90
2018-03-21T18:28:34.137Z,6.60
2018-03-21T18:31:02.026Z,5.80
2018-03-21T18:33:29.693Z,6.03
2018-03-21T18:35:57.278Z,6.03
2018-03-21T18:38:25.465Z,6.20
2018-03-21T18:40:54.090Z,6.37
2018-03-21T18:43:21.811Z,5.90
2018-03-21T18:45:49.325Z,6.30
2018-03-21T18:48:17.306Z,6.27
2018-03-21T18:50:45.396Z,5.93
2018-03-21T18:53:13.826Z,8.10
2018-03-21T18:55:41.435Z,6.60
2018-03-21T18:58:09.469Z,5.73
2018-03-21T19:00:37.046Z,5.73
2018-03-21T19:03:07.490Z,5.93
2018-03-21T19:05:36.030Z,6.13
2018-03-21T19:08:04.552Z,6.97
2018-03-21T19:10:32.129Z,5.43
2018-03-21T19:13:00.148Z,7.60
2018-03-21T19:15:27.712Z,6.50
2018-03-21T19:17:56.061Z,6.40
2018-03-21T19:20:24.355Z,5.80
2018-03-21T19:22:51.956Z,6.40
2018-03-21T19:25:19.489Z,6.60
2018-03-21T19:27:47.046Z,6.80
2018-03-21T19:30:16.100Z,9.50
2018-03-21T19:32:43.673Z,6.73
2018-03-21T19:35:11.255Z,7.17
2018-03-21T19:37:38.841Z,9.40
2018-03-21T19:40:06.433Z,8.70
2018-03-21T19:42:35.420Z,6.77
2018-03-21T19:45:03.836Z,6.20
2018-03-21T19:47:31.379Z,6.77
2018-03-21T19:50:00.058Z,7.00
2018-03-21T19:52:29.492Z,6.70
2018-03-21T19:54:57.315Z,7.63
2018-03-21T19:57:25.310Z,7.70
2018-03-21T19:59:52.871Z,8.97
2018-03-21T20:02:21.290Z,10.67
2018-03-21T20:04:48.860Z,9.83
2018-03-21T20:07:16.460Z,10.60
2018-03-21T20:09:45.832Z,8.53
2018-03-21T20:12:13.473Z,9.57
2018-03-21T20:14:41.019Z,7.63
2018-03-21T20:17:09.536Z,6.03
2018-03-21T20:19:37.336Z,7.27
2018-03-21T20:22:06.445Z,6.43
2018-03-21T20:24:35.933Z,6.00
2018-03-21T20:27:04.029Z,7.13
2018-03-21T20:29:31.625Z,6.07
2018-03-21T20:31:59.262Z,6.10
2018-03-21T20:34:27.301Z,7.40
2018-03-21T20:36:56.750Z,7.40
2018-03-21T20:39:24.734Z,7.80
2018-03-21T20:41:52.294Z,8.43
2018-03-21T20:44:19.885Z,7.40
2018-03-21T20:46:48.418Z,7.73
2018-03-21T20:49:16.037Z,7.47
2018-03-21T20:51:43.570Z,6.80
2018-03-21T20:54:11.172Z,6.87
2018-03-21T20:56:39.072Z,7.60
2018-03-21T20:59:06.938Z,7.20
2018-03-21T21:01:34.500Z,42.33
2018-03-21T21:04:02.052Z,15.23
2018-03-21T21:06:29.656Z,11.03
2018-03-21T21:08:57.980Z,7.53
2018-03-21T21:11:26.749Z,7.50
2018-03-21T21:13:54.771Z,7.80
2018-03-21T21:16:22.354Z,7.87
2018-03-21T21:18:50.163Z,8.47
2018-03-21T21:21:18.835Z,7.53
2018-03-21T21:23:47.498Z,7.33
2018-03-21T21:26:15.696Z,7.87
2018-03-21T21:28:43.248Z,8.93
2018-03-21T21:31:10.923Z,8.63
2018-03-21T21:33:38.710Z,9.20
2018-03-21T21:36:07.134Z,11.03
2018-03-21T21:38:35.573Z,15.40
2018-03-21T21:41:04.240Z,17.03
2018-03-21T21:43:32.094Z,14.20
2018-03-21T21:45:59.692Z,12.97
2018-03-21T21:48:27.276Z,10.33
2018-03-21T21:50:56.204Z,9.30
2018-03-21T21:53:24.036Z,9.20
2018-03-21T21:55:52.480Z,9.30
2018-03-21T21:58:20.099Z,8.33
2018-03-21T22:00:48.271Z,8.60
2018-03-21T22:03:16.561Z,7.80
2018-03-21T22:05:44.467Z,7.67
2018-03-21T22:08:12.002Z,8.33
2018-03-21T22:10:39.803Z,9.00
2018-03-21T22:13:07.355Z,8.27
2018-03-21T22:15:35.803Z,7.30
2018-03-21T22:18:03.367Z,7.07
2018-03-21T22:20:31.412Z,8.20
2018-03-21T22:22:59.955Z,14.90
2018-03-21T22:25:28.428Z,11.50
2018-03-21T22:27:56.025Z,8.83
2018-03-21T22:30:23.606Z,8.77
2018-03-21T22:32:51.168Z,8.50
2018-03-21T22:35:19.571Z,7.83
2018-03-21T22:37:47.155Z,8.17
2018-03-21T22:40:15.591Z,8.10
2018-03-21T22:42:44.223Z,7.80
2018-03-21T22:45:11.822Z,8.37
2018-03-21T22:47:39.932Z,7.57
2018-03-21T22:50:07.672Z,8.20
2018-03-21T22:52:36.355Z,8.87
2018-03-21T22:55:05.459Z,9.10
2018-03-21T22:57:33.163Z,8.70
2018-03-21T23:00:00.784Z,8.80
2018-03-21T23:02:29.125Z,8.30
2018-03-21T23:04:56.711Z,7.60
2018-03-21T23:07:25.783Z,8.10
2018-03-21T23:09:53.474Z,7.90
2018-03-21T23:12:21.803Z,7.77
2018-03-21T23:14:49.381Z,8.60
2018-03-21T23:17:16.973Z,7.80
2018-03-21T23:19:44.671Z,8.37
2018-03-21T23:22:12.981Z,9.20
2018-03-21T23:24:40.528Z,7.63
2018-03-21T23:27:08.096Z,8.77
2018-03-21T23:29:35.873Z,8.70
2018-03-21T23:32:03.495Z,8.90
2018-03-21T23:34:31.076Z,8.57
2018-03-21T23:36:58.721Z,7.60
2018-03-21T23:39:26.248Z,8.50
2018-03-21T23:41:54.057Z,8.27
2018-03-21T23:44:21.589Z,7.97
2018-03-21T23:46:49.480Z,7.70
2018-03-21T23:49:18.260Z,7.43
2018-03-21T23:51:46.615Z,8.03
2018-03-21T23:54:14.294Z,7.63
2018-03-21T23:56:43.381Z,8.40
2018-03-21T23:59:10.924Z,7.53
